Time;durP1;ratioP1;P1;durP2;ratioP2;P2;SDS_P1;SDS_P2;PMS_P1;PMS_P2;Temp;Humidity;BMP_temperature;BMP_pressure;BME280_temperature;BME280_humidity;BME280_pressure;Samples;Min_cycle;Max_cycle;Signal;HPM_P1;HPM_P2
2020/12/26 00:01:24;;;;;;;22.05;9.48;;;;;;;5.03;96.73;99599.54;1675217;85;21215;-78
2020/12/26 00:04:29;;;;;;;18.95;8.53;;;;;;;4.99;96.72;99600.89;1675319;85;21333;-78
2020/12/26 00:07:35;;;;;;;9.73;7.85;;;;;;;4.96;96.73;99602.55;1674471;85;21294;-79
2020/12/26 00:10:42;;;;;;;15.83;6.95;;;;;;;4.95;96.75;99603.56;1680326;85;21340;-78
2020/12/26 00:13:49;;;;;;;7.22;5.92;;;;;;;4.94;96.81;99604.55;1683505;85;21373;-78
2020/12/26 00:16:55;;;;;;;6.60;5.08;;;;;;;4.93;96.83;99596.08;1684779;85;21322;-79
2020/12/26 00:20:01;;;;;;;5.58;4.72;;;;;;;4.92;96.85;99594.38;1669942;85;21289;-78
2020/12/26 00:23:07;;;;;;;7.28;4.45;;;;;;;4.94;96.87;99586.45;1683850;85;21413;-78
2020/12/26 00:26:16;;;;;;;5.95;4.67;;;;;;;4.97;96.89;99585.27;1683490;85;21273;-78
2020/12/26 00:29:22;;;;;;;8.28;4.33;;;;;;;5.02;96.89;99593.78;1683586;85;21321;-79
2020/12/26 00:32:30;;;;;;;4.62;3.92;;;;;;;5.06;96.78;99591.10;1685009;85;21226;-79
2020/12/26 00:35:37;;;;;;;5.92;4.12;;;;;;;5.10;96.66;99585.71;1685047;85;21210;-79
2020/12/26 00:38:43;;;;;;;5.28;4.40;;;;;;;5.12;96.51;99588.59;1684652;85;21249;-79
2020/12/26 00:41:49;;;;;;;5.25;3.50;;;;;;;5.15;96.35;99583.88;1683638;85;21321;-78
2020/12/26 00:44:57;;;;;;;4.28;3.30;;;;;;;5.15;96.08;99586.59;1683746;85;21368;-79
2020/12/26 00:48:04;;;;;;;2.87;2.55;;;;;;;5.10;95.72;99584.36;1685082;85;21321;-79
2020/12/26 00:51:09;;;;;;;5.28;2.75;;;;;;;5.06;95.48;99591.10;1685017;85;21413;-79
2020/12/26 00:54:16;;;;;;;2.95;2.58;;;;;;;5.03;95.41;99585.98;1683715;85;21238;-79
2020/12/26 00:57:22;;;;;;;4.00;3.27;;;;;;;5.01;95.33;99588.02;1685007;85;21331;-79
2020/12/26 01:00:28;;;;;;;5.25;4.22;;;;;;;4.93;95.16;99590.16;1667812;85;21336;-78
2020/12/26 01:03:51;;;;;;;6.58;4.65;;;;;;;4.90;95.07;99589.13;1682320;85;21270;-79
2020/12/26 01:07:03;;;;;;;10.50;6.80;;;;;;;4.86;94.81;99579.61;1684539;85;21353;-79
2020/12/26 01:10:09;;;;;;;9.25;5.85;;;;;;;4.78;94.52;99579.03;1683340;85;21269;-79
2020/12/26 01:13:15;;;;;;;10.13;7.15;;;;;;;4.69;94.32;99585.39;1684690;85;21884;-80
2020/12/26 01:16:21;;;;;;;10.70;7.53;;;;;;;4.62;94.12;99582.97;1683835;85;21320;-80
2020/12/26 01:19:29;;;;;;;11.85;7.62;;;;;;;4.54;93.81;99595.08;1683797;85;21350;-79
2020/12/26 01:22:37;;;;;;;16.40;8.05;;;;;;;4.43;93.64;99590.75;1683733;85;21245;-79
2020/12/26 01:25:43;;;;;;;22.02;7.45;;;;;;;4.32;93.66;99586.39;1685040;85;21206;-79
2020/12/26 01:28:49;;;;;;;11.73;7.70;;;;;;;4.25;93.68;99589.89;1684377;85;21352;-79
2020/12/26 01:32:00;;;;;;;12.15;7.80;;;;;;;4.15;93.75;99585.90;1685027;85;21337;-79
2020/12/26 01:35:10;;;;;;;12.03;8.08;;;;;;;4.08;93.88;99581.58;1683837;85;21801;-79
2020/12/26 01:38:15;;;;;;;9.00;7.10;;;;;;;4.05;94.02;99584.61;1683971;84;21254;-79
2020/12/26 01:41:22;;;;;;;10.40;7.45;;;;;;;4.02;94.09;99584.05;1685084;85;21186;-80
2020/12/26 01:44:29;;;;;;;12.10;7.25;;;;;;;3.99;94.17;99565.41;1684232;85;21364;-79
2020/12/26 01:47:35;;;;;;;10.43;7.10;;;;;;;4.02;94.20;99567.82;1684960;85;21325;-79
2020/12/26 01:50:42;;;;;;;9.50;6.95;;;;;;;4.02;94.16;99574.08;1685052;85;21206;-80
2020/12/26 01:53:47;;;;;;;13.35;7.28;;;;;;;4.00;93.97;99577.45;1684768;85;21238;-79
2020/12/26 01:56:52;;;;;;;9.90;6.40;;;;;;;3.94;93.78;99582.60;1685065;85;21801;-79
2020/12/26 01:59:57;;;;;;;9.33;6.05;;;;;;;3.91;93.78;99578.87;1684602;85;21348;-80
2020/12/26 02:03:09;;;;;;;8.58;5.72;;;;;;;3.87;93.74;99581.02;1683638;85;21222;-79
2020/12/26 02:06:15;;;;;;;10.23;7.47;;;;;;;3.80;93.65;99580.75;1685069;85;21211;-79
2020/12/26 02:09:21;;;;;;;11.63;7.50;;;;;;;3.71;93.66;99573.53;1684840;85;21309;-79
2020/12/26 02:12:27;;;;;;;9.15;6.60;;;;;;;3.70;93.81;99574.55;1667788;85;22012;-79
2020/12/26 02:15:33;;;;;;;9.65;7.28;;;;;;;3.72;93.94;99580.67;1674131;85;21404;-79
2020/12/26 02:18:39;;;;;;;9.48;6.97;;;;;;;3.73;93.92;99584.22;1673617;85;21365;-79
2020/12/26 02:21:46;;;;;;;11.55;6.53;;;;;;;3.72;93.92;99584.73;1675242;85;21277;-79
2020/12/26 02:24:52;;;;;;;10.43;6.97;;;;;;;3.74;93.93;99589.47;1674684;85;21314;-79
2020/12/26 02:27:59;;;;;;;9.98;7.22;;;;;;;3.77;93.90;99591.89;1675242;85;21297;-80
2020/12/26 02:31:04;;;;;;;11.05;7.60;;;;;;;3.76;93.75;99595.58;1673834;85;21931;-79
2020/12/26 02:34:10;;;;;;;11.85;7.10;;;;;;;3.78;93.69;99594.94;1675110;85;21375;-79
2020/12/26 02:37:15;;;;;;;11.68;7.97;;;;;;;3.80;93.62;99605.09;1674610;84;21278;-79
2020/12/26 02:40:21;;;;;;;8.93;6.70;;;;;;;3.84;93.52;99606.50;1675094;85;21849;-79
2020/12/26 02:43:33;;;;;;;7.90;5.83;;;;;;;3.88;93.40;99608.41;1675269;85;21298;-79
2020/12/26 02:46:39;;;;;;;8.13;6.08;;;;;;;3.89;93.23;99603.85;1675175;85;21326;-79
2020/12/26 02:49:44;;;;;;;7.47;5.85;;;;;;;3.88;93.01;99596.74;1675280;85;21203;-79
2020/12/26 02:52:50;;;;;;;8.80;6.08;;;;;;;3.83;92.73;99602.61;1675262;85;21313;-79
2020/12/26 02:55:56;;;;;;;9.05;6.53;;;;;;;3.73;92.54;99594.55;1674212;85;21608;-79
2020/12/26 02:59:02;;;;;;;8.50;6.35;;;;;;;3.63;92.46;99589.69;1675202;85;21317;-79
2020/12/26 03:02:08;;;;;;;9.50;6.15;;;;;;;3.60;92.59;99596.73;1675179;85;21262;-79
2020/12/26 03:05:14;;;;;;;8.95;6.25;;;;;;;3.56;92.67;99602.09;1674770;85;21321;-79
2020/12/26 03:08:21;;;;;;;9.15;6.60;;;;;;;3.54;92.81;99602.24;1675202;85;21324;-79
2020/12/26 03:11:29;;;;;;;10.58;6.65;;;;;;;3.56;92.96;99596.67;1675247;85;21203;-79
2020/12/26 03:14:36;;;;;;;8.98;6.85;;;;;;;3.53;93.01;99583.47;1674678;85;21298;-78
2020/12/26 03:17:42;;;;;;;11.12;7.42;;;;;;;3.56;93.06;99589.91;1675241;85;21305;-79
2020/12/26 03:20:47;;;;;;;9.83;6.78;;;;;;;3.59;93.15;99590.98;1675290;85;21258;-79
2020/12/26 03:23:54;;;;;;;8.38;6.10;;;;;;;3.64;93.22;99598.14;1675191;85;21369;-78
2020/12/26 03:26:59;;;;;;;8.90;6.17;;;;;;;3.67;93.08;99603.27;1675216;85;21309;-80
2020/12/26 03:30:05;;;;;;;7.72;6.17;;;;;;;3.70;93.02;99596.19;1675136;85;21373;-79
2020/12/26 03:33:10;;;;;;;9.55;6.42;;;;;;;3.70;92.75;99591.28;1675083;85;21213;-79
2020/12/26 03:36:15;;;;;;;9.03;6.20;;;;;;;3.68;92.62;99601.41;1674370;84;22483;-79
2020/12/26 03:39:21;;;;;;;10.88;6.83;;;;;;;3.66;92.57;99610.16;1675172;85;21741;-79
2020/12/26 03:42:26;;;;;;;10.18;7.53;;;;;;;3.62;92.44;99606.89;1674266;85;21858;-79
2020/12/26 03:45:32;;;;;;;9.70;6.87;;;;;;;3.56;92.35;99611.05;1674900;85;21349;-79
2020/12/26 03:48:38;;;;;;;11.63;7.50;;;;;;;3.53;92.39;99615.92;1675314;85;21318;-79
2020/12/26 03:51:45;;;;;;;10.35;6.90;;;;;;;3.48;92.43;99606.02;1674523;85;21324;-79
2020/12/26 03:54:51;;;;;;;11.65;8.10;;;;;;;3.42;92.51;99609.33;1675352;85;21306;-79
2020/12/26 03:57:57;;;;;;;16.48;9.53;;;;;;;3.35;92.64;99617.69;1675056;85;21246;-79
2020/12/26 04:01:03;;;;;;;17.82;9.33;;;;;;;3.33;92.95;99612.41;1675099;85;21373;-79
2020/12/26 04:04:09;;;;;;;14.65;8.43;;;;;;;3.35;93.24;99612.28;1675193;85;21314;-79
2020/12/26 04:07:15;;;;;;;18.55;11.30;;;;;;;3.38;93.44;99614.17;1674130;85;21223;-79
2020/12/26 04:10:22;;;;;;;21.15;9.50;;;;;;;3.35;93.39;99623.95;1657579;86;21827;-79
2020/12/26 04:13:29;;;;;;;17.05;10.03;;;;;;;3.35;93.52;99633.41;1675260;85;21889;-79
2020/12/26 04:16:33;;;;;;;15.95;9.75;;;;;;;3.40;93.69;99639.73;1636773;87;21342;-79
2020/12/26 04:19:39;;;;;;;19.48;11.03;;;;;;;3.46;93.80;99623.75;1637960;87;21842;-79
2020/12/26 04:22:45;;;;;;;22.90;12.25;;;;;;;3.46;93.62;99618.84;1638174;87;21294;-80
2020/12/26 04:25:51;;;;;;;21.45;12.18;;;;;;;3.46;93.55;99628.31;1636612;87;21374;-80
2020/12/26 04:28:57;;;;;;;21.62;12.70;;;;;;;3.50;93.58;99635.98;1636693;87;22184;-80
2020/12/26 04:32:03;;;;;;;23.60;13.60;;;;;;;3.52;93.50;99628.56;1637537;87;21382;-79
2020/12/26 04:35:09;;;;;;;27.35;14.80;;;;;;;3.55;93.37;99630.13;1638264;87;21360;-79
2020/12/26 04:38:15;;;;;;;28.00;14.47;;;;;;;3.55;93.17;99628.28;1636953;86;21322;-79
2020/12/26 04:41:22;;;;;;;31.20;15.90;;;;;;;3.53;92.96;99637.05;1638268;87;22386;-79
2020/12/26 04:44:28;;;;;;;29.05;14.85;;;;;;;3.49;92.75;99652.36;1640398;86;21216;-79
2020/12/26 04:47:37;;;;;;;32.25;16.35;;;;;;;3.43;92.79;99652.92;1657932;86;21330;-79
2020/12/26 04:50:43;;;;;;;33.33;17.70;;;;;;;3.38;92.93;99644.41;1658836;86;21193;-79
2020/12/26 04:53:51;;;;;;;35.65;17.98;;;;;;;3.35;93.09;99660.94;1658785;86;21323;-79
2020/12/26 04:57:01;;;;;;;29.63;14.70;;;;;;;3.34;93.25;99669.55;1658214;86;21869;-79
2020/12/26 05:00:11;;;;;;;29.85;16.77;;;;;;;3.30;93.36;99678.95;1657353;86;21335;-79
2020/12/26 05:03:20;;;;;;;24.02;13.85;;;;;;;3.22;93.38;99676.95;1658924;86;21256;-79
2020/12/26 05:06:26;;;;;;;27.95;15.50;;;;;;;3.14;93.52;99702.49;1658667;86;21216;-79
2020/12/26 05:09:31;;;;;;;30.88;16.70;;;;;;;3.05;93.76;99697.95;1658517;86;21419;-80
2020/12/26 05:12:36;;;;;;;23.40;13.55;;;;;;;2.96;94.03;99710.95;1658632;86;21386;-80
2020/12/26 05:15:44;;;;;;;22.80;13.22;;;;;;;2.87;94.31;99718.56;1665743;85;22506;-80
2020/12/26 05:18:49;;;;;;;15.93;10.45;;;;;;;2.75;94.62;99730.86;1685148;85;21324;-80
2020/12/26 05:21:58;;;;;;;15.55;10.58;;;;;;;2.66;94.99;99739.80;1685020;85;22007;-80
2020/12/26 05:25:16;;;;;;;17.87;11.25;;;;;;;2.57;95.38;99758.19;1661784;86;21612;-80
2020/12/26 05:28:32;;;;;;;19.65;12.50;;;;;;;2.48;95.67;99761.72;1684154;85;21380;-79
2020/12/26 05:31:33;;;;;;;17.70;12.50;;;;;;;2.37;96.02;99768.58;1685397;85;21321;-80
2020/12/26 05:34:43;;;;;;;22.10;13.55;;;;;;;2.32;96.41;99777.59;1646918;86;22523;-80
2020/12/26 05:37:48;;;;;;;27.25;16.10;;;;;;;2.28;96.65;99785.09;1684268;84;21845;-79
2020/12/26 05:40:57;;;;;;;29.37;16.67;;;;;;;2.24;96.87;99799.34;1685070;85;21876;-81
2020/12/26 05:44:05;;;;;;;35.48;22.52;;;;;;;2.16;96.87;99797.81;1685098;85;21868;-81
2020/12/26 05:47:13;;;;;;;42.55;26.42;;;;;;;2.07;96.88;99804.05;1684851;85;21412;-80
2020/12/26 05:50:32;;;;;;;42.08;26.70;;;;;;;1.99;96.92;99805.20;1661458;86;21788;-80
2020/12/26 05:53:38;;;;;;;51.02;32.63;;;;;;;1.90;97.01;99796.56;1684356;85;21337;-81
2020/12/26 05:56:44;;;;;;;55.85;36.08;;;;;;;1.81;97.20;99796.86;1685083;85;21321;-80
2020/12/26 05:59:56;;;;;;;56.73;34.13;;;;;;;1.72;97.35;99797.16;1685284;85;21198;-80
2020/12/26 06:03:02;;;;;;;64.22;38.13;;;;;;;1.68;97.46;99804.30;1683936;85;21896;-81
2020/12/26 06:06:08;;;;;;;56.90;34.80;;;;;;;1.64;97.62;99801.00;1684760;85;21892;-80
2020/12/26 06:09:13;;;;;;;54.23;32.55;;;;;;;1.61;97.74;99805.83;1660963;86;21366;-81
2020/12/26 06:12:19;;;;;;;49.18;31.12;;;;;;;1.57;97.85;99809.77;1685030;85;21348;-80
2020/12/26 06:15:27;;;;;;;45.48;27.67;;;;;;;1.57;97.94;99817.36;1685015;85;21821;-80
2020/12/26 06:18:34;;;;;;;38.73;24.65;;;;;;;1.55;98.04;99823.35;1683719;85;21336;-80
2020/12/26 06:21:41;;;;;;;36.20;22.17;;;;;;;1.54;98.09;99817.61;1684877;85;21428;-80
2020/12/26 06:24:48;;;;;;;26.60;17.10;;;;;;;1.53;98.20;99819.95;1683532;85;21348;-79
2020/12/26 06:28:00;;;;;;;27.15;17.80;;;;;;;1.54;98.27;99829.73;1684332;85;21336;-79
2020/12/26 06:31:14;;;;;;;24.95;16.62;;;;;;;1.53;98.36;99836.97;1684729;85;21777;-79
2020/12/26 06:34:26;;;;;;;20.02;14.13;;;;;;;1.55;98.45;99839.53;1685211;85;21328;-79
2020/12/26 06:37:31;;;;;;;22.48;14.40;;;;;;;1.59;98.50;99830.70;1684182;84;21352;-79
2020/12/26 06:40:40;;;;;;;21.87;15.38;;;;;;;1.60;98.50;99833.75;1683777;85;21380;-79
2020/12/26 06:44:03;;;;;;;20.30;13.60;;;;;;;1.62;98.50;99827.75;1685198;85;21321;-79
2020/12/26 06:47:09;;;;;;;19.98;12.28;;;;;;;1.63;98.47;99820.86;1685112;85;21206;-79
2020/12/26 06:50:35;;;;;;;20.95;13.30;;;;;;;1.66;98.41;99840.84;1684968;85;21305;-79
2020/12/26 06:53:45;;;;;;;18.15;12.25;;;;;;;1.68;98.36;99840.20;1683076;85;21352;-79
2020/12/26 06:56:54;;;;;;;17.20;11.22;;;;;;;1.69;98.22;99837.00;1661362;86;21347;-79
2020/12/26 07:00:00;;;;;;;22.93;12.40;;;;;;;1.71;98.10;99840.44;1684974;85;21321;-79
2020/12/26 07:03:30;;;;;;;14.00;10.48;;;;;;;1.75;97.99;99850.84;1683591;85;21214;-79
2020/12/26 07:06:58;;;;;;;14.13;9.20;;;;;;;1.77;97.81;99867.73;1661385;86;21424;-78
2020/12/26 07:10:05;;;;;;;13.85;10.18;;;;;;;1.78;97.52;99868.58;1684474;85;21250;-78
2020/12/26 07:13:11;;;;;;;13.03;9.00;;;;;;;1.77;97.25;99866.88;1685038;85;21836;-78
2020/12/26 07:16:48;;;;;;;12.45;8.18;;;;;;;1.77;97.03;99851.55;1685066;85;21221;-78
2020/12/26 07:20:02;;;;;;;12.50;9.60;;;;;;;1.80;96.79;99865.28;1683751;85;21344;-78
2020/12/26 07:23:19;;;;;;;15.93;9.70;;;;;;;1.79;96.43;99865.77;1683720;85;21927;-78
2020/12/26 07:26:29;;;;;;;11.85;9.10;;;;;;;1.79;96.17;99859.03;1683884;85;21333;-79
2020/12/26 07:29:35;;;;;;;9.65;7.75;;;;;;;1.82;95.99;99875.92;1684271;85;21380;-79
2020/12/26 07:32:59;;;;;;;10.53;7.95;;;;;;;1.85;95.82;99877.02;1683749;85;21741;-79
2020/12/26 07:36:06;;;;;;;14.05;9.00;;;;;;;1.85;95.60;99887.31;1685108;85;21309;-79
2020/12/26 07:39:12;;;;;;;14.68;10.90;;;;;;;1.86;95.38;99888.16;1683777;85;21397;-78
2020/12/26 07:42:22;;;;;;;15.60;10.13;;;;;;;1.86;95.18;99890.36;1685167;85;21317;-79
2020/12/26 07:45:30;;;;;;;137.68;63.23;;;;;;;1.87;95.03;99891.22;1660874;86;21866;-79
2020/12/26 07:48:35;;;;;;;268.95;121.80;;;;;;;1.87;94.86;99901.50;1684993;85;21337;-79
2020/12/26 07:51:41;;;;;;;105.07;50.30;;;;;;;1.89;94.72;99905.44;1685056;85;21210;-79
2020/12/26 07:54:46;;;;;;;75.35;28.83;;;;;;;1.92;94.62;99922.70;1685065;85;21845;-79
2020/12/26 07:57:52;;;;;;;90.38;41.23;;;;;;;1.93;94.38;99919.89;1683342;85;21210;-79
2020/12/26 08:00:58;;;;;;;149.40;52.60;;;;;;;1.94;94.24;99927.48;1660810;86;22001;-79
2020/12/26 08:04:06;;;;;;;146.60;51.33;;;;;;;1.98;94.16;99912.75;1684953;85;22615;-79
2020/12/26 08:07:11;;;;;;;158.65;54.77;;;;;;;2.01;93.99;99922.77;1684988;85;21210;-79
2020/12/26 08:10:16;;;;;;;105.55;38.55;;;;;;;2.02;93.72;99939.34;1660595;86;21280;-79
2020/12/26 08:13:23;;;;;;;33.88;14.45;;;;;;;2.02;93.48;99930.36;1683720;85;21308;-79
2020/12/26 08:16:30;;;;;;;42.55;18.57;;;;;;;2.05;93.42;99931.45;1660900;86;21911;-79
2020/12/26 08:19:36;;;;;;;59.13;23.52;;;;;;;2.08;93.29;99935.25;1684333;85;21380;-79
2020/12/26 08:22:43;;;;;;;41.85;19.37;;;;;;;2.12;93.17;99947.97;1685111;85;21320;-79
2020/12/26 08:25:47;;;;;;;13.88;7.80;;;;;;;2.11;92.96;99953.00;1646356;86;21318;-79
2020/12/26 08:28:53;;;;;;;8.28;6.17;;;;;;;2.11;92.78;99965.14;1685069;85;21321;-79
2020/12/26 08:32:03;;;;;;;11.83;6.90;;;;;;;2.12;92.66;99952.89;1684021;85;21884;-78
2020/12/26 08:35:10;;;;;;;7.92;5.87;;;;;;;2.13;92.47;99949.20;1685190;85;21317;-78
2020/12/26 08:38:22;;;;;;;8.00;5.62;;;;;;;2.14;92.30;99941.46;1683999;84;21384;-78
2020/12/26 08:41:28;;;;;;;6.50;5.20;;;;;;;2.15;92.20;99956.66;1683286;85;21202;-79
2020/12/26 08:44:38;;;;;;;10.50;7.58;;;;;;;2.16;92.05;99960.20;1684551;85;21154;-78
2020/12/26 08:47:44;;;;;;;8.23;5.70;;;;;;;2.16;92.04;99963.76;1684862;85;21631;-79
2020/12/26 08:50:50;;;;;;;22.48;11.15;;;;;;;2.21;92.06;99968.30;1683868;85;21362;-79
2020/12/26 08:53:59;;;;;;;12.28;8.00;;;;;;;2.22;91.91;99970.00;1685102;85;21278;-79
2020/12/26 08:57:05;;;;;;;8.88;6.15;;;;;;;2.26;91.83;99987.66;1685087;85;21328;-79
2020/12/26 09:00:28;;;;;;;9.08;6.33;;;;;;;2.27;91.73;99977.20;1684607;85;21287;-78
2020/12/26 09:03:37;;;;;;;10.95;7.67;;;;;;;2.30;91.75;99985.02;1685114;85;21317;-78
2020/12/26 09:06:43;;;;;;;16.55;10.20;;;;;;;2.34;91.52;99986.13;1684917;85;22627;-78
2020/12/26 09:09:49;;;;;;;17.40;10.13;;;;;;;2.35;91.39;99995.92;1684855;85;21613;-78
2020/12/26 09:13:09;;;;;;;15.93;9.50;;;;;;;2.39;91.23;99991.98;1661469;86;21847;-78
2020/12/26 09:16:22;;;;;;;13.28;8.63;;;;;;;2.41;91.08;99981.42;1685135;85;21360;-78
2020/12/26 09:19:27;;;;;;;9.35;6.95;;;;;;;2.45;90.92;99973.42;1683642;85;21320;-79
2020/12/26 09:22:35;;;;;;;8.38;6.83;;;;;;;2.47;90.56;99983.59;1684420;85;21210;-79
2020/12/26 09:25:42;;;;;;;11.28;8.55;;;;;;;2.50;90.24;99989.23;1688253;85;21750;-79
2020/12/26 09:28:55;;;;;;;10.03;7.35;;;;;;;2.51;90.08;99989.09;1684093;85;21328;-78
2020/12/26 09:32:00;;;;;;;16.93;9.15;;;;;;;2.55;89.84;99986.98;1684213;85;21186;-77
2020/12/26 09:35:06;;;;;;;11.65;7.12;;;;;;;2.55;89.42;99977.53;1684989;85;21242;-78
2020/12/26 09:38:11;;;;;;;11.40;7.53;;;;;;;2.51;89.20;99980.14;1683806;84;21347;-79
2020/12/26 09:41:30;;;;;;;11.93;7.85;;;;;;;2.49;89.06;99969.95;1684217;85;21234;-79
2020/12/26 09:44:36;;;;;;;12.90;9.05;;;;;;;2.49;89.13;99967.24;1685113;85;21852;-79
2020/12/26 09:47:43;;;;;;;18.02;12.68;;;;;;;2.56;89.27;99983.29;1684287;85;21355;-79
2020/12/26 09:50:49;;;;;;;13.43;9.78;;;;;;;2.65;89.23;99979.79;1660992;86;21216;-79
2020/12/26 09:53:54;;;;;;;12.55;9.35;;;;;;;2.73;89.05;99987.20;1684781;85;21330;-79
2020/12/26 09:57:04;;;;;;;9.70;7.50;;;;;;;2.76;88.62;100005.85;1685055;85;21745;-79
2020/12/26 10:00:14;;;;;;;11.97;8.45;;;;;;;2.80;88.34;100004.09;1683699;85;21206;-79
2020/12/26 10:03:20;;;;;;;11.40;8.95;;;;;;;2.79;88.04;99993.44;1684165;85;21396;-79
2020/12/26 10:06:27;;;;;;;14.25;8.28;;;;;;;2.80;87.95;99986.55;1684944;85;21308;-78
2020/12/26 10:09:32;;;;;;;9.45;7.20;;;;;;;2.84;87.74;99957.92;1684906;85;21781;-79
2020/12/26 10:12:37;;;;;;;10.53;8.70;;;;;;;2.85;87.40;99951.02;1685081;85;21369;-78
2020/12/26 10:15:42;;;;;;;11.33;8.58;;;;;;;2.79;86.82;99949.73;1685205;85;21214;-78
2020/12/26 10:18:48;;;;;;;12.23;8.70;;;;;;;2.73;86.72;99933.19;1684067;85;21356;-79
2020/12/26 10:21:55;;;;;;;12.35;9.35;;;;;;;2.71;86.96;99930.63;1684141;85;21348;-78
2020/12/26 10:25:01;;;;;;;11.97;9.65;;;;;;;2.76;87.25;99935.13;1671731;85;21377;-79
2020/12/26 10:28:09;;;;;;;13.88;9.98;;;;;;;2.71;86.72;99920.33;1685037;85;21270;-78
2020/12/26 10:31:15;;;;;;;16.00;10.55;;;;;;;2.72;87.12;99942.28;1684786;85;21210;-78
2020/12/26 10:34:21;;;;;;;18.60;12.88;;;;;;;2.75;87.43;99944.73;1661157;86;21885;-78
2020/12/26 10:37:27;;;;;;;18.92;12.63;;;;;;;2.76;87.26;99949.98;1683765;84;21990;-78
2020/12/26 10:40:34;;;;;;;22.32;15.08;;;;;;;2.79;87.15;99967.78;1685268;85;21305;-78
2020/12/26 10:43:41;;;;;;;22.48;14.00;;;;;;;2.85;87.15;99999.65;1661586;86;21366;-78
2020/12/26 10:46:48;;;;;;;25.00;14.93;;;;;;;2.92;86.79;100002.19;1685192;85;21324;-79
2020/12/26 10:49:52;;;;;;;21.23;13.35;;;;;;;2.91;86.32;100004.50;1660216;86;21355;-79
2020/12/26 10:52:59;;;;;;;20.32;13.90;;;;;;;2.93;86.09;99997.63;1683670;85;21872;-78
2020/12/26 10:56:04;;;;;;;20.15;14.05;;;;;;;2.94;85.98;99988.03;1684950;85;21317;-78
2020/12/26 10:59:11;;;;;;;22.00;13.68;;;;;;;2.97;85.98;99989.62;1683732;85;21210;-78
2020/12/26 11:02:16;;;;;;;22.95;14.87;;;;;;;3.05;85.92;99991.98;1683711;85;21344;-78
2020/12/26 11:05:22;;;;;;;21.45;13.90;;;;;;;3.07;85.30;100004.88;1685001;85;21214;-78
2020/12/26 11:08:26;;;;;;;20.25;12.45;;;;;;;3.11;85.12;100024.39;1684648;85;21360;-78
2020/12/26 11:11:31;;;;;;;20.77;13.80;;;;;;;3.10;84.47;100038.86;1684924;85;21210;-78
2020/12/26 11:14:36;;;;;;;20.20;14.95;;;;;;;3.07;84.07;100039.16;1661366;86;21383;-78
2020/12/26 11:17:41;;;;;;;24.65;16.07;;;;;;;3.02;83.90;100051.72;1684914;85;21313;-78
2020/12/26 11:20:48;;;;;;;28.47;16.23;;;;;;;3.00;83.84;100054.18;1684968;85;21226;-78
2020/12/26 11:23:55;;;;;;;19.70;13.13;;;;;;;3.04;84.03;100054.28;1676947;85;21286;-78
2020/12/26 11:27:01;;;;;;;21.05;13.93;;;;;;;3.08;83.64;100062.48;1658818;86;21354;-78
2020/12/26 11:30:06;;;;;;;36.38;18.10;;;;;;;3.02;83.01;100065.23;1675060;85;21198;-78
2020/12/26 11:33:12;;;;;;;38.20;21.85;;;;;;;2.97;82.63;100074.73;1674011;85;21332;-78
2020/12/26 11:36:21;;;;;;;28.73;16.23;;;;;;;2.93;82.50;100083.59;1675101;84;21309;-78
2020/12/26 11:39:26;;;;;;;29.40;17.45;;;;;;;2.91;82.46;100080.15;1658267;86;21374;-78
2020/12/26 11:42:31;;;;;;;34.43;18.27;;;;;;;2.89;82.66;100086.20;1674640;85;21354;-78
2020/12/26 11:45:37;;;;;;;29.45;17.25;;;;;;;2.90;82.91;100092.45;1675231;85;21310;-78
2020/12/26 11:48:44;;;;;;;25.52;15.63;;;;;;;2.92;82.55;100093.19;1675074;85;21230;-78
2020/12/26 11:51:50;;;;;;;31.02;18.52;;;;;;;2.91;82.20;100095.01;1675163;85;21214;-78
2020/12/26 11:54:57;;;;;;;26.17;17.00;;;;;;;2.87;82.18;100102.16;1657300;86;21272;-78
2020/12/26 11:58:02;;;;;;;24.65;14.43;;;;;;;2.86;82.06;100102.66;1675170;85;21913;-78
2020/12/26 12:01:08;;;;;;;19.05;12.68;;;;;;;2.86;81.85;100093.70;1675208;85;21321;-78
2020/12/26 12:04:13;;;;;;;20.82;12.63;;;;;;;2.84;81.67;100111.40;1675159;85;21841;-78
2020/12/26 12:07:19;;;;;;;24.50;15.65;;;;;;;2.79;81.44;100122.59;1658713;86;21326;-78
2020/12/26 12:10:24;;;;;;;17.98;12.28;;;;;;;2.77;81.26;100134.01;1674539;85;21250;-78
2020/12/26 12:13:31;;;;;;;15.72;8.90;;;;;;;2.75;81.22;100137.35;1674554;85;21337;-78
2020/12/26 12:16:37;;;;;;;38.78;15.78;;;;;;;2.72;81.09;100128.64;1675266;85;21849;-78
2020/12/26 12:19:43;;;;;;;16.75;11.48;;;;;;;2.69;81.05;100143.28;1675278;85;21721;-78
2020/12/26 12:22:49;;;;;;;22.70;12.95;;;;;;;2.68;81.35;100151.03;1658549;86;21362;-78
2020/12/26 12:25:55;;;;;;;12.33;7.37;;;;;;;2.71;81.51;100148.55;1674447;85;21376;-79
2020/12/26 12:29:00;;;;;;;19.02;10.40;;;;;;;2.75;81.19;100152.20;1674057;85;22563;-79
2020/12/26 12:32:06;;;;;;;9.68;7.53;;;;;;;2.73;80.85;100169.52;1674022;85;21316;-78
2020/12/26 12:35:13;;;;;;;13.93;7.83;;;;;;;2.65;80.79;100170.18;1675186;85;21198;-78
2020/12/26 12:38:18;;;;;;;15.80;9.88;;;;;;;2.63;80.82;100151.02;1674075;84;21345;-78
2020/12/26 12:41:23;;;;;;;13.05;8.88;;;;;;;2.54;80.94;100144.09;1673961;85;21798;-78
2020/12/26 12:44:28;;;;;;;18.42;11.43;;;;;;;2.50;81.32;100162.02;1674095;85;21437;-78
2020/12/26 12:47:33;;;;;;;17.10;11.10;;;;;;;2.49;81.82;100163.88;1675312;85;21876;-78
2020/12/26 12:50:40;;;;;;;12.20;9.18;;;;;;;2.51;82.28;100145.69;1673733;85;21286;-78
2020/12/26 12:53:46;;;;;;;9.50;6.85;;;;;;;2.56;82.56;100166.41;1673506;85;21821;-78
2020/12/26 12:56:52;;;;;;;15.55;11.28;;;;;;;2.62;82.28;100185.78;1674397;85;21911;-79
2020/12/26 12:59:57;;;;;;;15.83;11.20;;;;;;;2.65;82.42;100190.44;1673624;85;21325;-78
2020/12/26 13:03:03;;;;;;;9.65;6.67;;;;;;;2.70;82.67;100192.25;1673892;85;21353;-78
2020/12/26 13:06:08;;;;;;;9.38;6.97;;;;;;;2.76;82.32;100189.03;1673979;85;21322;-78
2020/12/26 13:09:14;;;;;;;10.72;8.10;;;;;;;2.78;81.63;100203.78;1675169;85;21267;-78
2020/12/26 13:12:20;;;;;;;19.23;10.78;;;;;;;2.73;80.69;100193.82;1673949;85;21965;-78
2020/12/26 13:15:24;;;;;;;23.10;12.25;;;;;;;2.66;80.20;100194.84;1675202;85;21596;-78
2020/12/26 13:18:31;;;;;;;13.18;8.73;;;;;;;2.57;80.37;100202.36;1675262;85;21211;-79
2020/12/26 13:21:36;;;;;;;10.03;7.85;;;;;;;2.49;80.50;100224.63;1675222;85;21321;-79
2020/12/26 13:24:42;;;;;;;14.55;9.00;;;;;;;2.40;80.49;100234.83;1674654;85;21246;-79
2020/12/26 13:27:48;;;;;;;17.62;10.05;;;;;;;2.29;80.71;100256.42;1675212;85;21844;-79
2020/12/26 13:30:54;;;;;;;17.07;10.32;;;;;;;2.18;81.08;100257.30;1658499;86;21799;-79
2020/12/26 13:34:01;;;;;;;14.80;7.72;;;;;;;2.12;81.63;100267.25;1674349;85;21534;-79
2020/12/26 13:37:07;;;;;;;11.33;7.50;;;;;;;2.11;81.91;100284.89;1674650;84;21195;-78
2020/12/26 13:40:14;;;;;;;11.25;8.05;;;;;;;2.10;82.15;100300.22;1675204;85;21369;-78
2020/12/26 13:43:19;;;;;;;13.50;8.80;;;;;;;2.09;82.27;100276.92;1675388;85;21234;-79
2020/12/26 13:46:25;;;;;;;10.35;8.23;;;;;;;2.10;82.37;100263.80;1674791;85;21912;-78
2020/12/26 13:49:32;;;;;;;12.15;8.85;;;;;;;2.07;82.43;100242.48;1675174;85;21365;-78
2020/12/26 13:52:38;;;;;;;7.37;6.35;;;;;;;2.02;82.48;100218.56;1675295;85;21316;-78
2020/12/26 13:55:44;;;;;;;9.35;8.38;;;;;;;1.95;82.52;100228.61;1675313;85;21723;-79
2020/12/26 13:58:50;;;;;;;10.13;8.35;;;;;;;1.88;82.81;100240.86;1675240;85;21336;-78
2020/12/26 14:01:55;;;;;;;11.53;8.58;;;;;;;1.85;83.02;100228.49;1674674;85;21369;-78
2020/12/26 14:05:00;;;;;;;13.22;9.55;;;;;;;1.81;83.12;100220.77;1674358;85;21369;-78
2020/12/26 14:08:06;;;;;;;13.90;10.93;;;;;;;1.76;83.27;100206.30;1675330;85;21286;-78
2020/12/26 14:11:13;;;;;;;14.83;10.55;;;;;;;1.73;83.42;100211.93;1675265;85;21886;-78
2020/12/26 14:14:19;;;;;;;15.85;9.30;;;;;;;1.71;83.58;100224.20;1675006;85;21344;-79
2020/12/26 14:17:24;;;;;;;12.13;8.68;;;;;;;1.70;83.63;100238.67;1674671;85;21346;-79
2020/12/26 14:20:30;;;;;;;12.85;9.48;;;;;;;1.71;83.68;100251.16;1675196;85;21322;-79
2020/12/26 14:23:36;;;;;;;10.25;7.85;;;;;;;1.70;83.58;100238.67;1675505;85;21769;-78
2020/12/26 14:26:42;;;;;;;11.85;9.38;;;;;;;1.65;83.50;100238.67;1675410;85;21892;-78
2020/12/26 14:29:48;;;;;;;9.83;8.28;;;;;;;1.56;83.61;100213.78;1675241;85;21313;-79
2020/12/26 14:32:54;;;;;;;9.95;8.35;;;;;;;1.49;83.73;100218.77;1674504;85;21350;-79
2020/12/26 14:35:59;;;;;;;9.75;7.85;;;;;;;1.39;83.99;100221.83;1674120;85;21210;-78